createdAt,value
2022-09-03T00:01:53.320Z,100153.75
2022-09-03T00:07:00.294Z,100158.63
2022-09-03T00:12:14.529Z,100152.25
2022-09-03T00:17:27.327Z,100155.25
2022-09-03T00:22:46.842Z,100145.97
2022-09-03T00:27:47.403Z,100148.09
2022-09-03T00:33:05.636Z,100146.50
2022-09-03T00:38:01.971Z,100144.03
2022-09-03T00:43:08.385Z,100143.94
2022-09-03T00:48:17.758Z,100143.00
2022-09-03T00:53:34.289Z,100138.50
2022-09-03T00:58:44.400Z,100135.88
2022-09-03T01:03:58.666Z,100129.84
2022-09-03T01:09:00.742Z,100129.06
2022-09-03T01:14:15.842Z,100134.31
2022-09-03T01:19:40.444Z,100125.91
2022-09-03T01:25:07.894Z,100135.66
2022-09-03T01:30:09.118Z,100139.47
2022-09-03T01:35:19.221Z,100141.72
2022-09-03T01:40:35.694Z,100138.69
2022-09-03T01:45:36.915Z,100137.16
2022-09-03T01:50:46.221Z,100130.16
2022-09-03T01:56:01.313Z,100138.75
2022-09-03T02:01:03.189Z,100140.59
2022-09-03T02:06:00.512Z,100128.09
2022-09-03T02:11:02.016Z,100130.75
2022-09-03T02:16:03.498Z,100129.66
2022-09-03T02:21:01.081Z,100135.59
2022-09-03T02:25:59.630Z,100138.53
2022-09-03T02:30:57.066Z,100132.75
2022-09-03T02:35:55.205Z,100130.50
2022-09-03T02:40:52.076Z,100129.97
2022-09-03T02:45:53.794Z,100129.13
2022-09-03T02:50:50.229Z,100125.63
2022-09-03T02:55:46.622Z,100131.09
2022-09-03T03:00:43.173Z,100120.53
2022-09-03T03:05:46.746Z,100121.09
2022-09-03T03:10:46.471Z,100116.19
2022-09-03T03:15:44.201Z,100113.66
2022-09-03T03:20:42.318Z,100105.94
2022-09-03T03:25:39.837Z,100103.28
2022-09-03T03:30:40.275Z,100109.44
2022-09-03T03:35:37.317Z,100105.09
2022-09-03T03:40:34.719Z,100105.81
2022-09-03T03:45:31.034Z,100114.63
2022-09-03T03:50:28.017Z,100114.78
2022-09-03T03:55:24.407Z,100115.19
2022-09-03T04:00:24.721Z,100117.00
2022-09-03T04:05:23.230Z,100109.44
2022-09-03T04:10:20.455Z,100111.94
2022-09-03T04:15:16.908Z,100107.88
2022-09-03T04:20:13.451Z,100093.84
2022-09-03T04:25:09.868Z,100093.84
2022-09-03T04:30:06.879Z,100090.53
2022-09-03T04:35:03.978Z,100087.72
2022-09-03T04:40:00.529Z,100094.75
2022-09-03T04:44:56.879Z,100094.19
2022-09-03T04:49:55.036Z,100096.44
2022-09-03T04:54:51.493Z,100090.25
2022-09-03T04:59:47.818Z,100097.28
2022-09-03T05:04:44.172Z,100091.88
2022-09-03T05:09:40.465Z,100104.50
2022-09-03T05:14:36.875Z,100091.31
2022-09-03T05:19:34.350Z,100086.81
2022-09-03T05:24:30.671Z,100085.00
2022-09-03T05:29:27.093Z,100085.84
2022-09-03T05:34:24.135Z,100089.44
2022-09-03T05:39:20.490Z,100098.91
2022-09-03T05:44:16.832Z,100100.94
2022-09-03T05:49:13.133Z,100093.59
2022-09-03T05:54:10.816Z,100097.13
2022-09-03T05:59:09.285Z,100101.78
2022-09-03T06:04:11.466Z,100101.13
2022-09-03T06:09:10.783Z,100104.91
2022-09-03T06:14:08.950Z,100105.69
2022-09-03T06:19:09.526Z,100103.91
2022-09-03T06:24:06.033Z,100101.44
2022-09-03T06:29:02.368Z,100110.66
2022-09-03T06:34:03.358Z,100108.66
2022-09-03T06:39:01.006Z,100112.28
2022-09-03T06:44:03.096Z,100110.50
2022-09-03T06:48:59.476Z,100110.44
2022-09-03T06:54:04.332Z,100122.19
2022-09-03T06:59:05.654Z,100118.06
2022-09-03T07:04:04.299Z,100120.44
2022-09-03T07:09:00.770Z,100123.34
2022-09-03T07:13:58.599Z,100128.06
2022-09-03T07:18:56.099Z,100125.09
2022-09-03T07:23:54.088Z,100118.47
2022-09-03T07:28:50.963Z,100117.56
2022-09-03T07:33:47.346Z,100118.38
2022-09-03T07:38:45.011Z,100113.22
2022-09-03T07:43:47.078Z,100129.06
2022-09-03T07:48:43.921Z,100125.63
2022-09-03T07:53:40.360Z,100122.47
2022-09-03T07:58:38.087Z,100121.63
2022-09-03T08:03:38.721Z,100121.84
2022-09-03T08:08:36.910Z,100127.59
2022-09-03T08:13:34.531Z,100124.84
2022-09-03T08:18:31.964Z,100127.88
2022-09-03T08:23:29.221Z,100118.34
2022-09-03T08:28:26.150Z,100133.34
2022-09-03T08:33:37.022Z,100132.72
2022-09-03T08:38:35.152Z,100134.81
2022-09-03T08:43:40.808Z,100137.47
2022-09-03T08:48:37.321Z,100136.97
2022-09-03T08:53:48.958Z,100136.78
2022-09-03T08:58:45.446Z,100124.19
2022-09-03T09:04:06.878Z,100128.84
2022-09-03T09:09:30.426Z,100130.75
2022-09-03T09:14:30.740Z,100121.91
2022-09-03T09:19:49.910Z,100114.44
2022-09-03T09:24:48.197Z,100115.91
2022-09-03T09:29:48.607Z,100108.41
2022-09-03T09:34:49.957Z,100106.53
2022-09-03T09:39:57.719Z,100108.00
2022-09-03T09:44:54.232Z,100101.53
2022-09-03T09:49:57.521Z,100098.38
2022-09-03T09:55:08.145Z,100096.75
2022-09-03T10:00:14.802Z,100083.97
2022-09-03T10:05:24.540Z,100087.63
2022-09-03T10:10:21.658Z,100080.53
2022-09-03T10:15:33.002Z,100076.53
2022-09-03T10:20:37.221Z,100072.88
2022-09-03T10:26:12.203Z,100073.22
2022-09-03T10:31:21.526Z,100077.97
2022-09-03T10:36:26.833Z,100068.19
2022-09-03T10:41:48.886Z,100066.41
2022-09-03T10:47:01.208Z,100069.03
2022-09-03T10:52:09.068Z,100069.19
2022-09-03T10:57:25.208Z,100062.03
2022-09-03T11:02:41.303Z,100056.66
2022-09-03T11:07:43.736Z,100064.38
2022-09-03T11:13:01.029Z,100061.84
2022-09-03T11:18:09.542Z,100059.53
2022-09-03T11:23:10.057Z,100055.50
2022-09-03T11:28:36.233Z,100057.66
2022-09-03T11:33:39.787Z,100062.28
2022-09-03T11:38:37.418Z,100057.44
2022-09-03T11:43:34.275Z,100047.94
2022-09-03T11:48:45.739Z,100043.22
2022-09-03T11:53:42.125Z,100050.19
2022-09-03T11:58:42.897Z,100048.41
2022-09-03T12:03:44.663Z,100036.91
2022-09-03T12:08:51.419Z,100036.34
2022-09-03T12:14:13.907Z,100041.19
2022-09-03T12:19:22.171Z,100041.53
2022-09-03T12:24:20.216Z,100030.81
2022-09-03T12:29:27.513Z,100029.53
2022-09-03T12:34:26.435Z,100032.09
2022-09-03T12:44:42.124Z,100031.44
2022-09-03T12:49:49.855Z,100028.88
2022-09-03T12:54:56.649Z,100019.50
2022-09-03T12:59:56.537Z,100024.03
2022-09-03T13:04:53.961Z,100014.44
2022-09-03T13:09:50.949Z,100014.72
2022-09-03T13:14:48.032Z,100015.22
2022-09-03T13:20:02.650Z,100020.53
2022-09-03T13:25:22.563Z,100015.84
2022-09-03T13:30:31.080Z,100020.84
2022-09-03T13:35:30.424Z,100023.16
2022-09-03T13:41:18.661Z,100022.50
2022-09-03T13:46:32.814Z,100014.59
2022-09-03T13:51:40.052Z,100013.56
2022-09-03T13:57:01.021Z,100014.06
2022-09-03T14:02:20.636Z,100007.69
2022-09-03T14:07:35.170Z,100008.22
2022-09-03T14:12:34.241Z,100011.81
2022-09-03T14:17:52.240Z,100003.09
2022-09-03T14:23:20.972Z,100003.38
2022-09-03T14:28:46.535Z,100003.97
2022-09-03T14:34:00.517Z,100004.88
2022-09-03T14:39:20.899Z,100000.41
2022-09-03T14:45:12.555Z,99999.09
2022-09-03T14:50:19.944Z,100000.03
2022-09-03T14:55:51.511Z,100007.72
2022-09-03T15:01:00.476Z,100003.72
2022-09-03T15:06:21.175Z,100010.31
2022-09-03T15:11:32.677Z,100014.78
2022-09-03T15:16:43.332Z,100000.53
2022-09-03T15:22:08.412Z,100022.34
2022-09-03T15:27:48.466Z,100016.53
2022-09-03T15:32:51.278Z,100011.63
2022-09-03T15:37:54.657Z,100020.25
2022-09-03T15:42:58.329Z,100021.31
2022-09-03T15:48:13.791Z,100015.97
2022-09-03T15:53:34.079Z,100024.97
2022-09-03T15:58:41.084Z,100024.34
2022-09-03T16:03:59.559Z,100031.06
2022-09-03T16:09:02.108Z,100034.78
2022-09-03T16:14:01.689Z,100037.72
2022-09-03T16:19:13.100Z,100032.41
2022-09-03T16:24:26.696Z,100024.31
2022-09-03T16:29:28.640Z,100031.53
2022-09-03T16:34:33.265Z,100028.09
2022-09-03T16:39:38.792Z,100031.41
2022-09-03T16:44:59.907Z,100031.69
2022-09-03T16:50:40.666Z,100030.44
2022-09-03T16:55:58.373Z,100025.03
2022-09-03T17:01:13.464Z,100025.28
2022-09-03T17:06:30.692Z,100042.06
2022-09-03T17:11:59.420Z,100051.16
2022-09-03T17:17:18.257Z,100049.94
2022-09-03T17:22:38.919Z,100050.50
2022-09-03T17:28:00.476Z,100045.00
2022-09-03T17:33:29.194Z,100048.19
2022-09-03T17:39:04.132Z,100065.66
2022-09-03T17:44:21.677Z,100059.19
2022-09-03T17:49:29.421Z,100074.16
2022-09-03T17:54:37.728Z,100071.13
2022-09-03T17:59:46.174Z,100087.94
2022-09-03T18:04:52.392Z,100088.84
2022-09-03T18:10:19.212Z,100101.72
2022-09-03T18:15:25.517Z,100106.94
2022-09-03T18:20:42.774Z,100110.25
2022-09-03T18:25:59.647Z,100120.19
2022-09-03T18:31:14.562Z,100126.41
2022-09-03T18:36:31.716Z,100130.41
2022-09-03T18:41:52.984Z,100137.97
2022-09-03T18:53:14.216Z,100136.44
2022-09-03T18:59:06.571Z,100136.66
2022-09-03T19:04:34.046Z,100136.22
2022-09-03T19:10:07.193Z,100140.25
2022-09-03T19:15:33.644Z,100151.28
2022-09-03T19:20:50.763Z,100159.63
2022-09-03T19:26:06.350Z,100164.91
2022-09-03T19:31:52.104Z,100162.13
2022-09-03T19:37:13.541Z,100167.13
2022-09-03T19:42:43.311Z,100165.81
2022-09-03T19:48:09.602Z,100175.34
2022-09-03T19:53:36.087Z,100174.81
2022-09-03T19:58:54.520Z,100187.97
2022-09-03T20:04:10.582Z,100186.03
2022-09-03T20:09:28.693Z,100190.41
2022-09-03T20:14:25.102Z,100187.06
2022-09-03T20:19:48.652Z,100187.38
2022-09-03T20:24:58.806Z,100197.78
2022-09-03T20:30:09.404Z,100208.16
2022-09-03T20:35:30.746Z,100211.53
2022-09-03T20:40:46.758Z,100227.78
2022-09-03T20:46:00.923Z,100223.91
2022-09-03T20:51:13.073Z,100217.06
2022-09-03T20:56:27.112Z,100215.28
2022-09-03T21:01:56.250Z,100218.53
2022-09-03T21:07:02.596Z,100225.38
2022-09-03T21:12:32.337Z,100225.31
2022-09-03T21:17:59.675Z,100233.53
2022-09-03T21:23:01.320Z,100227.53
2022-09-03T21:28:06.804Z,100232.72
2022-09-03T21:33:10.301Z,100233.66
2022-09-03T21:38:13.806Z,100238.00
2022-09-03T21:43:19.283Z,100235.31
2022-09-03T21:48:38.969Z,100236.31
2022-09-03T21:54:14.384Z,100246.91
2022-09-03T21:59:41.352Z,100245.06
2022-09-03T22:04:38.549Z,100244.72
2022-09-03T22:09:50.441Z,100244.38
2022-09-03T22:14:51.623Z,100243.47
2022-09-03T22:19:47.984Z,100244.16
2022-09-03T22:24:55.156Z,100255.72
2022-09-03T22:29:58.541Z,100256.19
2022-09-03T22:35:06.452Z,100257.50
2022-09-03T22:40:10.950Z,100245.72
2022-09-03T22:45:20.307Z,100251.81
2022-09-03T22:50:26.887Z,100250.47
2022-09-03T22:55:25.613Z,100258.38
2022-09-03T23:00:22.017Z,100274.38
2022-09-03T23:05:32.530Z,100268.84
2022-09-03T23:10:32.870Z,100271.66
2022-09-03T23:15:32.251Z,100276.03
2022-09-03T23:20:29.648Z,100276.63
2022-09-03T23:25:42.015Z,100279.06
2022-09-03T23:30:38.386Z,100282.78
2022-09-03T23:35:50.983Z,100284.53
2022-09-03T23:40:49.243Z,100275.38
2022-09-03T23:46:12.404Z,100279.84
2022-09-03T23:51:22.617Z,100282.59
2022-09-03T23:56:31.352Z,100276.16
